Lake Intervale, New Jersey
Current Conditions -  °F | °C
As of 11:53 PM on Saturday 25 Oct 2014 (Local Time) from KCDW Reporting Station
Broken Clouds Broken Clouds  
Wind Chill: 60°   Ceiling: 10000
Heat Index: 60°   Visibility: 10mi
Dew Point: 43°   Wind: 5mph
Humidity: 53%   Direction: NA
Pressure: 29.57"   Gusts: NA
Location:  40.929°N, 74.4211°W
Report Text: KCDW 260353Z VRB04KT 10SM FEW065 SCT080 BKN100 16/06 A2957 RMK AO2 SLP018 T01560061
Loading
Personal Weather Stations






























Interactive Weather Map
Tropical Storm Tracking
New forecast layout! Learn more

10-Day Weather Forecast

Advertisements
Track Severe Weather on mobile